Husum, Washington
Current Conditions -  °F | °C
As of 5:39 AM on Wednesday 26 Nov 2014 (Local Time) from K4S2 Reporting Station
Overcast Overcast  
Wind Chill: 57°   Ceiling: 5500
Heat Index: 57°   Visibility: 10mi
Dew Point: 50°   Wind: 9mph
Humidity: 77%   Direction: 300°WNW
Pressure: 30.2"   Gusts: 16mph
Location:  45.8°N, 121.49°W
Report Text: K4S2 261339Z AUTO 30008G14KT 260V320 10SM OVC055 14/10 A3020 RMK AO2 SLP242 T01400100
Loading
Personal Weather Stations






























Interactive Weather Map New forecast layout! Learn more

10-Day Weather Forecast

Advertisements
Track Severe Weather on mobile